createdAt,value
2022-08-20T00:02:44.341Z,22.71
2022-08-20T00:05:56.741Z,22.62
2022-08-20T00:08:59.514Z,22.59
2022-08-20T00:12:02.592Z,22.58
2022-08-20T00:15:06.880Z,22.61
2022-08-20T00:18:10.064Z,22.74
2022-08-20T00:21:19.123Z,22.79
2022-08-20T00:24:22.373Z,22.79
2022-08-20T00:27:25.117Z,22.70
2022-08-20T00:30:28.143Z,22.70
2022-08-20T00:33:31.473Z,22.69
2022-08-20T00:36:34.440Z,22.71
2022-08-20T00:39:37.229Z,22.69
2022-08-20T00:42:50.172Z,22.54
2022-08-20T00:45:56.369Z,22.40
2022-08-20T00:49:02.269Z,22.37
2022-08-20T00:52:14.097Z,22.48
2022-08-20T00:55:19.965Z,22.42
2022-08-20T00:58:23.083Z,22.36
2022-08-20T01:01:26.204Z,22.24
2022-08-20T01:04:33.690Z,22.19
2022-08-20T01:07:38.153Z,22.21
2022-08-20T01:10:44.879Z,22.17
2022-08-20T01:13:48.683Z,22.09
2022-08-20T01:16:56.848Z,21.95
2022-08-20T01:20:06.489Z,21.61
2022-08-20T01:23:27.205Z,21.78
2022-08-20T01:26:39.796Z,21.84
2022-08-20T01:29:42.584Z,21.77
2022-08-20T01:32:45.568Z,21.74
2022-08-20T01:35:50.330Z,21.67
2022-08-20T01:38:54.926Z,21.73
2022-08-20T01:42:19.622Z,21.67
2022-08-20T01:45:26.865Z,21.62
2022-08-20T01:48:30.566Z,21.75
2022-08-20T01:51:33.493Z,21.73
2022-08-20T01:54:36.308Z,21.75
2022-08-20T01:57:40.003Z,21.83
2022-08-20T02:00:43.267Z,21.84
2022-08-20T02:03:46.303Z,21.63
2022-08-20T02:06:56.734Z,21.84
2022-08-20T02:10:00.322Z,21.81
2022-08-20T02:13:05.628Z,21.77
2022-08-20T02:16:08.817Z,21.65
2022-08-20T02:19:16.749Z,21.65
2022-08-20T02:22:26.115Z,21.74
2022-08-20T02:25:32.461Z,21.73
2022-08-20T02:28:35.631Z,21.66
2022-08-20T02:32:23.466Z,21.63
2022-08-20T02:35:05.950Z,21.51
2022-08-20T02:38:10.033Z,21.48
2022-08-20T02:41:13.511Z,21.43
2022-08-20T02:44:20.528Z,21.52
2022-08-20T02:47:23.645Z,21.41
2022-08-20T02:50:27.640Z,21.46
2022-08-20T02:53:39.408Z,21.69
2022-08-20T02:56:42.432Z,21.68
2022-08-20T02:59:47.418Z,21.64
2022-08-20T03:02:50.566Z,21.40
2022-08-20T03:05:57.591Z,21.75
2022-08-20T03:09:00.912Z,21.81
2022-08-20T03:12:05.116Z,22.00
2022-08-20T03:15:17.631Z,21.76
2022-08-20T03:18:22.699Z,21.74
2022-08-20T03:21:26.624Z,21.73
2022-08-20T03:24:29.408Z,21.78
2022-08-20T03:27:36.515Z,21.71
2022-08-20T03:30:39.514Z,21.80
2022-08-20T03:33:48.936Z,21.47
2022-08-20T03:36:56.332Z,21.38
2022-08-20T03:39:59.555Z,21.48
2022-08-20T03:43:02.407Z,21.41
2022-08-20T03:46:05.497Z,21.46
2022-08-20T03:49:25.032Z,21.56
2022-08-20T03:52:29.816Z,21.64
2022-08-20T03:55:32.619Z,21.56
2022-08-20T03:58:36.629Z,21.77
2022-08-20T04:01:46.281Z,21.87
2022-08-20T04:04:49.819Z,21.85
2022-08-20T04:07:52.641Z,21.87
2022-08-20T04:10:57.804Z,21.80
2022-08-20T04:14:00.468Z,21.86
2022-08-20T04:17:09.980Z,21.84
2022-08-20T04:20:15.833Z,21.80
2022-08-20T04:23:19.296Z,21.88
2022-08-20T04:26:22.437Z,21.96
2022-08-20T04:29:26.267Z,21.82
2022-08-20T04:32:36.908Z,21.60
2022-08-20T04:35:41.304Z,21.89
2022-08-20T04:38:49.893Z,21.97
2022-08-20T04:41:53.911Z,21.83
2022-08-20T04:44:56.633Z,22.18
2022-08-20T04:48:05.700Z,22.21
2022-08-20T04:51:10.133Z,22.36
2022-08-20T04:54:14.690Z,22.44
2022-08-20T04:57:17.335Z,22.62
2022-08-20T05:00:20.321Z,22.69
2022-08-20T05:03:23.877Z,22.71
2022-08-20T05:06:30.624Z,22.68
2022-08-20T05:09:43.649Z,22.68
2022-08-20T05:12:56.470Z,22.67
2022-08-20T05:16:02.045Z,22.62
2022-08-20T05:19:06.897Z,22.52
2022-08-20T05:22:10.178Z,22.54
2022-08-20T05:25:13.275Z,22.53
2022-08-20T05:28:22.888Z,22.43
2022-08-20T05:31:32.467Z,22.41
2022-08-20T05:34:36.684Z,22.22
2022-08-20T05:37:43.608Z,22.19
2022-08-20T05:40:47.615Z,22.22
2022-08-20T05:43:51.623Z,22.24
2022-08-20T05:46:54.396Z,22.13
2022-08-20T05:49:57.536Z,22.14
2022-08-20T05:53:01.557Z,22.13
2022-08-20T06:09:31.158Z,22.16
2022-08-20T07:40:02.462Z,20.87
2022-08-20T07:43:05.997Z,20.92
2022-08-20T07:46:13.347Z,20.98
2022-08-20T07:49:16.303Z,21.46
2022-08-20T07:52:19.053Z,21.42
2022-08-20T07:55:22.151Z,21.52
2022-08-20T07:58:33.164Z,21.56
2022-08-20T08:01:36.783Z,21.52
2022-08-20T08:04:40.057Z,21.45
2022-08-20T08:07:43.179Z,21.49
2022-08-20T08:10:52.789Z,21.76
2022-08-20T08:14:05.447Z,21.53
2022-08-20T08:17:09.937Z,21.44
2022-08-20T08:20:13.326Z,21.47
2022-08-20T08:23:24.528Z,21.52
2022-08-20T08:26:34.090Z,21.79
2022-08-20T08:29:37.861Z,21.97
2022-08-20T08:33:03.133Z,21.84
2022-08-20T08:36:12.065Z,21.74
2022-08-20T08:39:14.900Z,22.06
2022-08-20T08:42:44.067Z,22.08
2022-08-20T08:45:52.125Z,22.10
2022-08-20T08:48:58.084Z,21.92
2022-08-20T08:52:11.950Z,21.87
2022-08-20T08:55:19.387Z,21.86
2022-08-20T08:58:22.490Z,21.82
2022-08-20T09:01:55.423Z,21.64
2022-08-20T09:04:51.576Z,21.56
2022-08-20T09:07:54.896Z,21.45
2022-08-20T09:11:02.677Z,21.56
2022-08-20T09:14:05.625Z,21.52
2022-08-20T09:17:08.393Z,21.55
2022-08-20T09:20:12.099Z,21.32
2022-08-20T09:23:14.813Z,21.37
2022-08-20T09:26:17.932Z,21.31
2022-08-20T09:29:20.595Z,21.29
2022-08-20T09:32:24.996Z,21.20
2022-08-20T09:35:29.157Z,21.23
2022-08-20T09:38:32.824Z,21.19
2022-08-20T09:41:35.681Z,21.12
2022-08-20T09:44:39.528Z,21.18
2022-08-20T09:47:54.783Z,21.22
2022-08-20T09:51:00.316Z,21.15
2022-08-20T09:54:03.008Z,20.96
2022-08-20T09:57:09.582Z,21.03
2022-08-20T10:00:12.891Z,21.00
2022-08-20T10:03:16.236Z,21.09
2022-08-20T10:06:20.553Z,20.86
2022-08-20T10:09:23.635Z,20.90
2022-08-20T10:12:26.972Z,21.03
2022-08-20T10:15:30.309Z,20.80
2022-08-20T10:18:34.607Z,20.70
2022-08-20T10:21:39.136Z,20.79
2022-08-20T10:24:42.784Z,20.64
2022-08-20T10:27:45.668Z,20.76
2022-08-20T10:30:48.598Z,20.87
2022-08-20T10:33:51.274Z,21.04
2022-08-20T10:36:54.282Z,21.14
2022-08-20T10:39:57.731Z,21.29
2022-08-20T10:43:00.811Z,21.23
2022-08-20T10:46:03.997Z,21.24
2022-08-20T10:49:06.959Z,21.13
2022-08-20T10:52:09.622Z,21.35
2022-08-20T10:55:13.328Z,21.34
2022-08-20T10:58:16.014Z,21.34
2022-08-20T11:01:28.741Z,21.14
2022-08-20T11:04:36.460Z,21.07
2022-08-20T11:07:50.635Z,20.94
2022-08-20T11:10:58.977Z,21.02
2022-08-20T11:14:01.971Z,20.93
2022-08-20T11:17:05.326Z,20.60
2022-08-20T11:20:10.819Z,20.67
2022-08-20T11:23:13.697Z,20.44
2022-08-20T11:26:22.331Z,20.86
2022-08-20T11:29:24.951Z,21.01
2022-08-20T11:32:28.008Z,21.20
2022-08-20T11:35:49.977Z,21.23
2022-08-20T11:38:53.262Z,21.19
2022-08-20T11:41:55.922Z,21.30
2022-08-20T11:44:58.859Z,21.44
2022-08-20T11:48:01.570Z,21.58
2022-08-20T11:51:05.321Z,21.83
2022-08-20T11:54:07.936Z,21.88
2022-08-20T11:57:11.462Z,22.16
2022-08-20T12:00:22.174Z,22.70
2022-08-20T12:03:36.700Z,22.88
2022-08-20T12:06:39.434Z,22.60
2022-08-20T12:09:50.397Z,23.12
2022-08-20T12:12:55.611Z,23.01
2022-08-20T12:15:59.820Z,23.00
2022-08-20T12:19:02.452Z,23.13
2022-08-20T12:22:24.756Z,23.45
2022-08-20T12:25:28.159Z,23.74
2022-08-20T12:28:32.382Z,23.51
2022-08-20T12:31:35.001Z,23.93
2022-08-20T12:34:40.971Z,23.95
2022-08-20T12:37:44.819Z,23.49
2022-08-20T12:40:47.926Z,23.56
2022-08-20T12:43:50.525Z,23.35
2022-08-20T12:47:07.892Z,24.01
2022-08-20T12:50:31.939Z,23.74
2022-08-20T12:53:35.137Z,23.97
2022-08-20T12:56:37.755Z,24.32
2022-08-20T12:59:41.126Z,24.43
2022-08-20T13:02:43.736Z,24.29
2022-08-20T13:05:46.927Z,24.48
2022-08-20T13:08:49.540Z,24.84
2022-08-20T13:11:52.759Z,24.63
2022-08-20T13:14:55.459Z,24.82
2022-08-20T13:18:01.314Z,24.81
2022-08-20T13:21:04.036Z,25.30
2022-08-20T13:24:07.104Z,25.12
2022-08-20T13:27:15.355Z,24.81
2022-08-20T13:30:19.819Z,24.82
2022-08-20T13:33:22.505Z,24.78
2022-08-20T13:36:26.023Z,25.25
2022-08-20T13:39:28.982Z,25.39
2022-08-20T13:42:31.995Z,25.21
2022-08-20T13:45:36.457Z,25.77
2022-08-20T13:48:39.645Z,25.66
2022-08-20T13:51:42.287Z,26.05
2022-08-20T13:54:45.270Z,26.52
2022-08-20T13:57:48.008Z,26.49
2022-08-20T14:00:51.248Z,26.41
2022-08-20T14:03:54.153Z,26.55
2022-08-20T14:06:56.876Z,26.68
2022-08-20T14:10:07.497Z,26.49
2022-08-20T14:13:15.382Z,26.74
2022-08-20T14:16:25.449Z,26.89
2022-08-20T14:19:30.700Z,26.86
2022-08-20T14:22:36.410Z,27.02
2022-08-20T14:25:39.454Z,26.95
2022-08-20T14:28:42.543Z,27.13
2022-08-20T14:31:45.146Z,26.98
2022-08-20T14:34:48.111Z,26.94
2022-08-20T14:37:53.100Z,26.94
2022-08-20T14:40:56.061Z,26.86
2022-08-20T14:43:58.684Z,26.97
2022-08-20T14:47:13.276Z,26.86
2022-08-20T14:50:30.052Z,26.72
2022-08-20T14:53:37.468Z,26.62
2022-08-20T14:56:42.918Z,26.76
2022-08-20T14:59:46.955Z,26.78
2022-08-20T15:02:49.686Z,26.56
2022-08-20T15:05:52.584Z,26.43
2022-08-20T15:08:57.284Z,26.25
2022-08-20T15:12:00.634Z,26.38
2022-08-20T15:15:15.272Z,26.46
2022-08-20T15:18:19.296Z,26.38
2022-08-20T15:21:22.073Z,26.36
2022-08-20T15:24:25.068Z,26.20
2022-08-20T15:27:27.880Z,26.18
2022-08-20T15:30:31.588Z,26.11
2022-08-20T15:33:34.365Z,26.00
2022-08-20T15:36:37.347Z,25.89
2022-08-20T15:39:45.745Z,25.93
2022-08-20T15:42:48.751Z,25.76
2022-08-20T15:45:51.334Z,25.68
2022-08-20T15:48:54.338Z,25.57
2022-08-20T15:51:57.222Z,25.48
2022-08-20T15:55:02.417Z,25.39
2022-08-20T15:58:14.948Z,25.23
2022-08-20T16:01:27.392Z,25.19
2022-08-20T16:04:49.113Z,25.22
2022-08-20T16:08:19.950Z,25.18
2022-08-20T16:11:32.035Z,25.16
2022-08-20T16:14:39.245Z,25.12
2022-08-20T16:18:06.392Z,25.04
2022-08-20T16:21:13.785Z,25.00
2022-08-20T16:24:17.175Z,25.07
2022-08-20T16:27:27.840Z,25.01
2022-08-20T16:30:47.425Z,24.99
2022-08-20T16:34:29.897Z,24.97
2022-08-20T16:37:45.176Z,24.95
2022-08-20T16:41:06.644Z,24.84
2022-08-20T16:44:31.764Z,24.70
2022-08-20T16:47:36.653Z,24.66
2022-08-20T16:51:03.571Z,24.59
2022-08-20T16:54:06.751Z,24.57
2022-08-20T16:57:12.813Z,24.51
2022-08-20T17:00:39.043Z,24.36
2022-08-20T17:03:50.673Z,24.32
2022-08-20T17:07:01.339Z,24.23
2022-08-20T17:11:12.374Z,24.20
2022-08-20T17:14:18.219Z,24.14
2022-08-20T17:17:31.829Z,23.98
2022-08-20T17:20:44.842Z,23.95
2022-08-20T17:23:56.460Z,23.80
2022-08-20T17:27:10.711Z,23.63
2022-08-20T17:30:19.883Z,23.64
2022-08-20T17:33:33.975Z,23.68
2022-08-20T17:36:46.903Z,23.61
2022-08-20T17:40:05.308Z,23.58
2022-08-20T17:43:22.042Z,23.55
2022-08-20T17:46:28.048Z,23.34
2022-08-20T17:49:39.456Z,23.41
2022-08-20T17:52:55.273Z,23.29
2022-08-20T17:56:03.056Z,23.15
2022-08-20T18:00:00.305Z,22.92
2022-08-20T18:02:49.860Z,22.95
2022-08-20T18:06:10.719Z,22.85
2022-08-20T18:09:31.193Z,22.80
2022-08-20T18:12:40.636Z,22.63
2022-08-20T18:15:56.504Z,22.68
2022-08-20T18:19:42.108Z,22.50
2022-08-20T18:23:11.810Z,22.55
2022-08-20T18:26:19.033Z,22.51
2022-08-20T18:29:27.561Z,22.44
2022-08-20T18:32:35.584Z,22.50
2022-08-20T18:35:45.886Z,22.48
2022-08-20T18:39:23.349Z,22.39
2022-08-20T18:42:31.259Z,22.24
2022-08-20T18:45:36.531Z,22.22
2022-08-20T18:48:51.132Z,22.21
2022-08-20T18:51:54.087Z,22.14
2022-08-20T18:55:00.103Z,22.03
2022-08-20T18:58:09.687Z,22.06
2022-08-20T19:01:14.176Z,22.07
2022-08-20T19:04:23.687Z,22.02
2022-08-20T19:07:43.268Z,22.00
2022-08-20T19:11:13.212Z,21.93
2022-08-20T19:14:34.545Z,21.87
2022-08-20T19:17:40.273Z,21.71
2022-08-20T19:20:54.436Z,21.64
2022-08-20T19:24:01.498Z,21.70
2022-08-20T19:27:07.639Z,21.65
2022-08-20T19:30:13.567Z,21.44
2022-08-20T19:33:26.716Z,21.56
2022-08-20T19:36:33.413Z,21.51
2022-08-20T19:39:37.116Z,21.53
2022-08-20T19:42:43.254Z,21.54
2022-08-20T19:45:50.308Z,21.48
2022-08-20T19:49:12.366Z,21.45
2022-08-20T19:52:27.347Z,21.45
2022-08-20T19:55:41.212Z,21.44
2022-08-20T19:58:45.252Z,21.44
2022-08-20T20:01:58.806Z,21.35
2022-08-20T20:05:06.486Z,21.41
2022-08-20T20:08:11.579Z,21.24
2022-08-20T20:11:20.817Z,21.23
2022-08-20T20:14:32.661Z,21.34
2022-08-20T20:17:36.761Z,21.21
2022-08-20T20:20:57.728Z,21.41
2022-08-20T20:24:01.908Z,21.47
2022-08-20T20:27:22.206Z,21.50
2022-08-20T20:30:33.564Z,21.48
2022-08-20T20:33:44.099Z,21.52
2022-08-20T20:36:48.009Z,21.53
2022-08-20T20:40:00.709Z,21.53
2022-08-20T20:43:09.067Z,21.57
2022-08-20T20:46:24.600Z,21.56
2022-08-20T20:49:30.698Z,21.49
2022-08-20T20:52:36.952Z,21.41
2022-08-20T20:55:41.906Z,21.43
2022-08-20T20:58:45.126Z,21.35
2022-08-20T21:01:57.516Z,21.43
2022-08-20T21:05:00.344Z,21.35
2022-08-20T21:08:06.263Z,21.43
2022-08-20T21:11:11.424Z,21.45
2022-08-20T21:14:14.900Z,21.47
2022-08-20T21:17:21.994Z,21.39
2022-08-20T21:20:25.573Z,21.30
2022-08-20T21:23:40.209Z,21.33
2022-08-20T21:26:45.525Z,21.33
2022-08-20T21:29:48.604Z,21.34
2022-08-20T21:32:51.911Z,21.28
2022-08-20T21:35:54.993Z,21.42
2022-08-20T21:38:58.295Z,21.51
2022-08-20T21:42:03.145Z,21.47
2022-08-20T21:45:13.895Z,21.53
2022-08-20T21:48:21.061Z,21.50
2022-08-20T21:51:24.081Z,21.48
2022-08-20T21:54:27.125Z,21.34
2022-08-20T21:57:33.315Z,21.32
2022-08-20T22:00:47.924Z,21.34
2022-08-20T22:03:51.905Z,21.25
2022-08-20T22:06:55.095Z,21.13
2022-08-20T22:09:58.021Z,21.21
2022-08-20T22:13:00.706Z,21.10
2022-08-20T22:16:18.467Z,20.91
2022-08-20T22:19:21.188Z,20.66
2022-08-20T22:22:24.271Z,20.55
2022-08-20T22:25:26.934Z,20.42
2022-08-20T22:28:29.950Z,20.40
2022-08-20T22:31:36.150Z,20.52
2022-08-20T22:34:39.184Z,20.60
2022-08-20T22:37:41.828Z,20.71
2022-08-20T22:40:45.475Z,20.81
2022-08-20T22:43:56.876Z,20.92
2022-08-20T22:47:05.019Z,21.01
2022-08-20T22:50:10.231Z,20.99
2022-08-20T22:53:14.684Z,20.82
2022-08-20T22:56:19.824Z,20.98
2022-08-20T22:59:25.398Z,20.86
2022-08-20T23:02:28.017Z,20.92
2022-08-20T23:05:33.599Z,20.92
2022-08-20T23:08:36.679Z,20.83
2022-08-20T23:11:39.639Z,20.73
2022-08-20T23:14:42.256Z,20.58
2022-08-20T23:17:45.714Z,20.50
2022-08-20T23:20:56.305Z,20.58
2022-08-20T23:23:59.275Z,20.38
2022-08-20T23:27:02.179Z,20.45
2022-08-20T23:30:05.778Z,20.30
2022-08-20T23:33:08.538Z,20.40
2022-08-20T23:36:13.675Z,20.37
2022-08-20T23:39:16.512Z,20.44
2022-08-20T23:42:19.471Z,20.47
2022-08-20T23:45:22.512Z,20.47
2022-08-20T23:48:26.508Z,20.52
2022-08-20T23:51:29.306Z,20.46
2022-08-20T23:54:32.969Z,20.45
2022-08-20T23:57:36.113Z,20.49
